sensor_id;sensor_type;location;lat;lon;timestamp;P1;durP1;ratioP1;P2;durP2;ratioP2
50739;SDS011;36704;52.524;17.580;2023-12-07T00:04:40;99.30;;;30.30;;
50739;SDS011;36704;52.524;17.580;2023-12-07T00:10:02;122.43;;;32.85;;
50739;SDS011;36704;52.524;17.580;2023-12-07T00:15:24;110.82;;;31.08;;
50739;SDS011;36704;52.524;17.580;2023-12-07T00:20:46;119.97;;;30.30;;
50739;SDS011;36704;52.524;17.580;2023-12-07T00:26:07;104.60;;;31.38;;
50739;SDS011;36704;52.524;17.580;2023-12-07T00:31:29;110.13;;;34.08;;
50739;SDS011;36704;52.524;17.580;2023-12-07T00:36:50;116.23;;;32.57;;
50739;SDS011;36704;52.524;17.580;2023-12-07T00:42:11;117.85;;;31.48;;
50739;SDS011;36704;52.524;17.580;2023-12-07T00:47:33;103.05;;;31.23;;
50739;SDS011;36704;52.524;17.580;2023-12-07T00:52:55;128.73;;;36.00;;
50739;SDS011;36704;52.524;17.580;2023-12-07T00:58:16;102.45;;;28.60;;
50739;SDS011;36704;52.524;17.580;2023-12-07T01:03:38;104.10;;;31.23;;
50739;SDS011;36704;52.524;17.580;2023-12-07T01:09:01;106.43;;;32.03;;
50739;SDS011;36704;52.524;17.580;2023-12-07T01:14:24;124.68;;;34.47;;
50739;SDS011;36704;52.524;17.580;2023-12-07T01:19:46;126.88;;;34.78;;
50739;SDS011;36704;52.524;17.580;2023-12-07T01:25:08;111.60;;;31.10;;
50739;SDS011;36704;52.524;17.580;2023-12-07T01:30:30;97.90;;;32.90;;
50739;SDS011;36704;52.524;17.580;2023-12-07T01:35:51;112.68;;;32.53;;
50739;SDS011;36704;52.524;17.580;2023-12-07T01:41:13;108.40;;;30.83;;
50739;SDS011;36704;52.524;17.580;2023-12-07T01:46:34;95.57;;;29.77;;
50739;SDS011;36704;52.524;17.580;2023-12-07T01:51:56;96.78;;;29.45;;
50739;SDS011;36704;52.524;17.580;2023-12-07T01:57:19;127.20;;;38.03;;
50739;SDS011;36704;52.524;17.580;2023-12-07T02:02:41;86.30;;;30.07;;
50739;SDS011;36704;52.524;17.580;2023-12-07T02:08:02;89.63;;;31.57;;
50739;SDS011;36704;52.524;17.580;2023-12-07T02:13:24;94.20;;;28.50;;
50739;SDS011;36704;52.524;17.580;2023-12-07T02:18:55;139.07;;;37.00;;
50739;SDS011;36704;52.524;17.580;2023-12-07T02:24:26;171.73;;;42.67;;
50739;SDS011;36704;52.524;17.580;2023-12-07T02:29:49;111.05;;;37.30;;
50739;SDS011;36704;52.524;17.580;2023-12-07T02:35:11;108.23;;;32.33;;
50739;SDS011;36704;52.524;17.580;2023-12-07T02:40:36;87.75;;;27.27;;
50739;SDS011;36704;52.524;17.580;2023-12-07T02:45:59;76.75;;;26.45;;
50739;SDS011;36704;52.524;17.580;2023-12-07T02:51:21;83.70;;;25.05;;
50739;SDS011;36704;52.524;17.580;2023-12-07T02:56:42;79.40;;;25.70;;
50739;SDS011;36704;52.524;17.580;2023-12-07T03:02:03;90.18;;;26.25;;
50739;SDS011;36704;52.524;17.580;2023-12-07T03:07:25;78.17;;;25.17;;
50739;SDS011;36704;52.524;17.580;2023-12-07T03:12:46;86.47;;;24.80;;
50739;SDS011;36704;52.524;17.580;2023-12-07T03:18:08;79.60;;;24.05;;
50739;SDS011;36704;52.524;17.580;2023-12-07T03:23:30;91.63;;;28.35;;
50739;SDS011;36704;52.524;17.580;2023-12-07T03:28:51;73.38;;;24.95;;
50739;SDS011;36704;52.524;17.580;2023-12-07T03:34:12;87.32;;;26.92;;
50739;SDS011;36704;52.524;17.580;2023-12-07T03:39:37;86.97;;;28.70;;
50739;SDS011;36704;52.524;17.580;2023-12-07T03:44:58;86.53;;;27.73;;
50739;SDS011;36704;52.524;17.580;2023-12-07T03:50:20;78.97;;;26.87;;
50739;SDS011;36704;52.524;17.580;2023-12-07T03:55:41;77.10;;;28.48;;
50739;SDS011;36704;52.524;17.580;2023-12-07T04:01:03;73.88;;;25.25;;
50739;SDS011;36704;52.524;17.580;2023-12-07T04:06:25;81.00;;;25.52;;
50739;SDS011;36704;52.524;17.580;2023-12-07T04:11:46;77.70;;;24.10;;
50739;SDS011;36704;52.524;17.580;2023-12-07T04:17:07;67.53;;;24.58;;
50739;SDS011;36704;52.524;17.580;2023-12-07T04:22:28;83.93;;;27.33;;
50739;SDS011;36704;52.524;17.580;2023-12-07T04:27:50;70.90;;;24.45;;
50739;SDS011;36704;52.524;17.580;2023-12-07T04:33:11;78.55;;;25.92;;
50739;SDS011;36704;52.524;17.580;2023-12-07T04:38:33;78.63;;;23.77;;
50739;SDS011;36704;52.524;17.580;2023-12-07T04:43:54;74.30;;;25.60;;
50739;SDS011;36704;52.524;17.580;2023-12-07T04:49:16;79.03;;;24.85;;
50739;SDS011;36704;52.524;17.580;2023-12-07T04:54:38;73.40;;;24.95;;
50739;SDS011;36704;52.524;17.580;2023-12-07T04:59:59;76.65;;;27.25;;
50739;SDS011;36704;52.524;17.580;2023-12-07T05:05:22;77.57;;;24.92;;
50739;SDS011;36704;52.524;17.580;2023-12-07T05:10:45;65.22;;;23.05;;
50739;SDS011;36704;52.524;17.580;2023-12-07T05:16:08;83.18;;;25.38;;
50739;SDS011;36704;52.524;17.580;2023-12-07T05:21:31;80.13;;;26.30;;
50739;SDS011;36704;52.524;17.580;2023-12-07T05:26:53;82.10;;;27.50;;
50739;SDS011;36704;52.524;17.580;2023-12-07T05:32:14;81.45;;;26.33;;
50739;SDS011;36704;52.524;17.580;2023-12-07T05:37:35;82.78;;;28.55;;
50739;SDS011;36704;52.524;17.580;2023-12-07T05:42:56;80.05;;;25.98;;
50739;SDS011;36704;52.524;17.580;2023-12-07T05:48:18;89.72;;;28.10;;
50739;SDS011;36704;52.524;17.580;2023-12-07T05:53:40;88.83;;;29.20;;
50739;SDS011;36704;52.524;17.580;2023-12-07T05:59:01;150.15;;;43.78;;
50739;SDS011;36704;52.524;17.580;2023-12-07T06:04:23;103.63;;;31.33;;
50739;SDS011;36704;52.524;17.580;2023-12-07T06:09:45;93.75;;;30.17;;
50739;SDS011;36704;52.524;17.580;2023-12-07T06:15:07;93.28;;;30.50;;
50739;SDS011;36704;52.524;17.580;2023-12-07T06:20:28;87.22;;;27.52;;
50739;SDS011;36704;52.524;17.580;2023-12-07T06:25:53;90.85;;;28.40;;
50739;SDS011;36704;52.524;17.580;2023-12-07T06:31:14;92.93;;;33.07;;
50739;SDS011;36704;52.524;17.580;2023-12-07T06:41:59;194.82;;;73.88;;
50739;SDS011;36704;52.524;17.580;2023-12-07T06:47:21;105.22;;;33.03;;
50739;SDS011;36704;52.524;17.580;2023-12-07T06:52:47;85.63;;;27.42;;
50739;SDS011;36704;52.524;17.580;2023-12-07T06:58:09;84.10;;;28.58;;
50739;SDS011;36704;52.524;17.580;2023-12-07T07:03:30;110.55;;;33.40;;
50739;SDS011;36704;52.524;17.580;2023-12-07T07:08:53;111.18;;;34.08;;
50739;SDS011;36704;52.524;17.580;2023-12-07T07:14:16;88.07;;;31.75;;
50739;SDS011;36704;52.524;17.580;2023-12-07T07:19:38;92.03;;;31.50;;
50739;SDS011;36704;52.524;17.580;2023-12-07T07:25:00;93.82;;;29.42;;
50739;SDS011;36704;52.524;17.580;2023-12-07T07:30:24;86.70;;;31.73;;
50739;SDS011;36704;52.524;17.580;2023-12-07T07:35:45;93.15;;;29.10;;
50739;SDS011;36704;52.524;17.580;2023-12-07T07:41:06;88.90;;;29.55;;
50739;SDS011;36704;52.524;17.580;2023-12-07T07:46:29;117.45;;;32.92;;
50739;SDS011;36704;52.524;17.580;2023-12-07T07:51:50;234.17;;;67.87;;
50739;SDS011;36704;52.524;17.580;2023-12-07T07:57:12;206.98;;;63.00;;
50739;SDS011;36704;52.524;17.580;2023-12-07T08:02:34;193.63;;;64.50;;
50739;SDS011;36704;52.524;17.580;2023-12-07T08:07:57;124.53;;;41.58;;
50739;SDS011;36704;52.524;17.580;2023-12-07T08:13:18;112.50;;;38.40;;
50739;SDS011;36704;52.524;17.580;2023-12-07T08:18:39;114.13;;;40.45;;
50739;SDS011;36704;52.524;17.580;2023-12-07T08:24:01;112.87;;;39.87;;
50739;SDS011;36704;52.524;17.580;2023-12-07T08:29:22;107.95;;;35.80;;
50739;SDS011;36704;52.524;17.580;2023-12-07T08:34:44;113.53;;;38.35;;
50739;SDS011;36704;52.524;17.580;2023-12-07T08:40:06;112.38;;;37.17;;
50739;SDS011;36704;52.524;17.580;2023-12-07T08:45:32;112.57;;;39.08;;
50739;SDS011;36704;52.524;17.580;2023-12-07T08:50:54;130.10;;;37.37;;
50739;SDS011;36704;52.524;17.580;2023-12-07T08:56:15;117.82;;;37.70;;
50739;SDS011;36704;52.524;17.580;2023-12-07T09:01:37;115.07;;;38.38;;
50739;SDS011;36704;52.524;17.580;2023-12-07T09:06:58;105.50;;;33.03;;
50739;SDS011;36704;52.524;17.580;2023-12-07T09:12:20;99.80;;;33.13;;
50739;SDS011;36704;52.524;17.580;2023-12-07T09:17:52;96.13;;;33.35;;
50739;SDS011;36704;52.524;17.580;2023-12-07T09:23:14;106.68;;;37.97;;
50739;SDS011;36704;52.524;17.580;2023-12-07T09:28:38;113.82;;;38.97;;
50739;SDS011;36704;52.524;17.580;2023-12-07T09:34:00;97.72;;;33.97;;
50739;SDS011;36704;52.524;17.580;2023-12-07T09:39:32;104.93;;;35.00;;
50739;SDS011;36704;52.524;17.580;2023-12-07T09:44:54;104.65;;;38.30;;
50739;SDS011;36704;52.524;17.580;2023-12-07T09:50:16;119.87;;;41.33;;
50739;SDS011;36704;52.524;17.580;2023-12-07T09:55:39;142.30;;;43.70;;
50739;SDS011;36704;52.524;17.580;2023-12-07T10:01:01;137.50;;;43.63;;
50739;SDS011;36704;52.524;17.580;2023-12-07T10:06:23;123.38;;;40.08;;
50739;SDS011;36704;52.524;17.580;2023-12-07T10:11:44;120.30;;;41.53;;
50739;SDS011;36704;52.524;17.580;2023-12-07T10:17:07;119.78;;;37.75;;
50739;SDS011;36704;52.524;17.580;2023-12-07T10:22:29;89.50;;;33.27;;
50739;SDS011;36704;52.524;17.580;2023-12-07T10:27:52;101.47;;;34.35;;
50739;SDS011;36704;52.524;17.580;2023-12-07T10:33:14;96.20;;;33.00;;
50739;SDS011;36704;52.524;17.580;2023-12-07T10:38:36;91.88;;;32.08;;
50739;SDS011;36704;52.524;17.580;2023-12-07T10:43:59;94.45;;;32.47;;
50739;SDS011;36704;52.524;17.580;2023-12-07T10:55:07;113.13;;;35.30;;
50739;SDS011;36704;52.524;17.580;2023-12-07T11:00:32;106.03;;;38.03;;
50739;SDS011;36704;52.524;17.580;2023-12-07T11:06:06;121.53;;;39.85;;
50739;SDS011;36704;52.524;17.580;2023-12-07T11:16:55;134.85;;;45.17;;
50739;SDS011;36704;52.524;17.580;2023-12-07T11:22:16;110.57;;;37.80;;
50739;SDS011;36704;52.524;17.580;2023-12-07T11:27:38;102.70;;;35.37;;
50739;SDS011;36704;52.524;17.580;2023-12-07T11:32:59;142.60;;;45.88;;
50739;SDS011;36704;52.524;17.580;2023-12-07T11:38:22;139.48;;;47.65;;
50739;SDS011;36704;52.524;17.580;2023-12-07T11:43:44;115.60;;;39.35;;
50739;SDS011;36704;52.524;17.580;2023-12-07T11:49:08;109.53;;;38.38;;
50739;SDS011;36704;52.524;17.580;2023-12-07T11:54:49;122.45;;;40.03;;
50739;SDS011;36704;52.524;17.580;2023-12-07T12:00:11;142.95;;;48.28;;
50739;SDS011;36704;52.524;17.580;2023-12-07T12:05:36;117.82;;;41.30;;
50739;SDS011;36704;52.524;17.580;2023-12-07T12:11:00;111.38;;;39.00;;
50739;SDS011;36704;52.524;17.580;2023-12-07T12:16:22;125.95;;;40.47;;
50739;SDS011;36704;52.524;17.580;2023-12-07T12:21:46;118.88;;;36.83;;
50739;SDS011;36704;52.524;17.580;2023-12-07T12:27:08;127.95;;;44.10;;
50739;SDS011;36704;52.524;17.580;2023-12-07T12:32:46;137.15;;;42.72;;
50739;SDS011;36704;52.524;17.580;2023-12-07T12:38:10;133.25;;;46.30;;
50739;SDS011;36704;52.524;17.580;2023-12-07T12:43:47;141.75;;;46.50;;
50739;SDS011;36704;52.524;17.580;2023-12-07T12:49:08;144.97;;;43.33;;
50739;SDS011;36704;52.524;17.580;2023-12-07T12:54:30;135.88;;;44.38;;
50739;SDS011;36704;52.524;17.580;2023-12-07T12:59:54;171.98;;;56.72;;
50739;SDS011;36704;52.524;17.580;2023-12-07T13:05:15;156.80;;;53.57;;
50739;SDS011;36704;52.524;17.580;2023-12-07T13:15:59;116.88;;;38.03;;
50739;SDS011;36704;52.524;17.580;2023-12-07T13:21:20;117.10;;;39.65;;
50739;SDS011;36704;52.524;17.580;2023-12-07T13:26:41;100.82;;;38.03;;
50739;SDS011;36704;52.524;17.580;2023-12-07T13:32:03;130.60;;;42.38;;
50739;SDS011;36704;52.524;17.580;2023-12-07T13:37:26;127.22;;;39.42;;
50739;SDS011;36704;52.524;17.580;2023-12-07T13:48:10;216.23;;;66.20;;
50739;SDS011;36704;52.524;17.580;2023-12-07T13:53:34;366.30;;;116.35;;
50739;SDS011;36704;52.524;17.580;2023-12-07T13:58:56;291.73;;;78.57;;
50739;SDS011;36704;52.524;17.580;2023-12-07T14:04:18;163.57;;;54.13;;
50739;SDS011;36704;52.524;17.580;2023-12-07T14:09:50;188.25;;;57.78;;
50739;SDS011;36704;52.524;17.580;2023-12-07T14:15:19;367.50;;;127.45;;
50739;SDS011;36704;52.524;17.580;2023-12-07T14:20:54;379.92;;;107.40;;
50739;SDS011;36704;52.524;17.580;2023-12-07T14:26:35;197.93;;;58.20;;
50739;SDS011;36704;52.524;17.580;2023-12-07T14:31:56;165.80;;;53.63;;
50739;SDS011;36704;52.524;17.580;2023-12-07T14:37:17;321.23;;;86.70;;
50739;SDS011;36704;52.524;17.580;2023-12-07T14:42:39;154.93;;;47.47;;
50739;SDS011;36704;52.524;17.580;2023-12-07T14:48:01;159.50;;;48.83;;
50739;SDS011;36704;52.524;17.580;2023-12-07T14:53:22;160.67;;;50.17;;
50739;SDS011;36704;52.524;17.580;2023-12-07T14:58:45;132.05;;;41.90;;
50739;SDS011;36704;52.524;17.580;2023-12-07T15:04:07;168.30;;;52.88;;
50739;SDS011;36704;52.524;17.580;2023-12-07T15:09:37;146.27;;;46.65;;
50739;SDS011;36704;52.524;17.580;2023-12-07T15:14:58;199.65;;;64.25;;
50739;SDS011;36704;52.524;17.580;2023-12-07T15:20:20;229.63;;;71.35;;
50739;SDS011;36704;52.524;17.580;2023-12-07T15:31:05;137.18;;;50.05;;
50739;SDS011;36704;52.524;17.580;2023-12-07T15:36:27;119.35;;;42.20;;
50739;SDS011;36704;52.524;17.580;2023-12-07T15:41:50;128.73;;;44.85;;
50739;SDS011;36704;52.524;17.580;2023-12-07T15:47:12;122.68;;;39.42;;
50739;SDS011;36704;52.524;17.580;2023-12-07T15:52:33;169.52;;;61.17;;
50739;SDS011;36704;52.524;17.580;2023-12-07T15:57:54;276.23;;;87.85;;
50739;SDS011;36704;52.524;17.580;2023-12-07T16:03:18;347.45;;;105.10;;
50739;SDS011;36704;52.524;17.580;2023-12-07T16:08:39;237.38;;;77.30;;
50739;SDS011;36704;52.524;17.580;2023-12-07T16:14:00;241.52;;;81.65;;
50739;SDS011;36704;52.524;17.580;2023-12-07T16:19:22;170.70;;;59.03;;
50739;SDS011;36704;52.524;17.580;2023-12-07T16:24:46;253.45;;;77.55;;
50739;SDS011;36704;52.524;17.580;2023-12-07T16:30:07;249.82;;;82.78;;
50739;SDS011;36704;52.524;17.580;2023-12-07T16:35:33;202.25;;;66.80;;
50739;SDS011;36704;52.524;17.580;2023-12-07T16:40:54;218.85;;;70.85;;
50739;SDS011;36704;52.524;17.580;2023-12-07T16:46:16;417.83;;;157.32;;
50739;SDS011;36704;52.524;17.580;2023-12-07T16:51:37;249.30;;;90.47;;
50739;SDS011;36704;52.524;17.580;2023-12-07T16:57:00;233.43;;;88.82;;
50739;SDS011;36704;52.524;17.580;2023-12-07T17:02:21;231.30;;;78.28;;
50739;SDS011;36704;52.524;17.580;2023-12-07T17:07:44;205.45;;;70.15;;
50739;SDS011;36704;52.524;17.580;2023-12-07T17:13:04;188.02;;;62.38;;
50739;SDS011;36704;52.524;17.580;2023-12-07T17:18:26;207.70;;;69.07;;
50739;SDS011;36704;52.524;17.580;2023-12-07T17:23:48;262.92;;;87.03;;
50739;SDS011;36704;52.524;17.580;2023-12-07T17:29:09;263.67;;;102.10;;
50739;SDS011;36704;52.524;17.580;2023-12-07T17:34:31;184.88;;;63.53;;
50739;SDS011;36704;52.524;17.580;2023-12-07T17:39:52;186.38;;;57.53;;
50739;SDS011;36704;52.524;17.580;2023-12-07T17:45:18;186.13;;;58.53;;
50739;SDS011;36704;52.524;17.580;2023-12-07T17:50:39;177.98;;;53.20;;
50739;SDS011;36704;52.524;17.580;2023-12-07T17:56:02;193.45;;;60.47;;
50739;SDS011;36704;52.524;17.580;2023-12-07T18:01:24;185.52;;;62.67;;
50739;SDS011;36704;52.524;17.580;2023-12-07T18:06:46;221.23;;;77.07;;
50739;SDS011;36704;52.524;17.580;2023-12-07T18:12:08;214.02;;;72.45;;
50739;SDS011;36704;52.524;17.580;2023-12-07T18:17:30;235.93;;;75.10;;
50739;SDS011;36704;52.524;17.580;2023-12-07T18:22:52;246.65;;;80.85;;
50739;SDS011;36704;52.524;17.580;2023-12-07T18:28:13;240.57;;;79.65;;
50739;SDS011;36704;52.524;17.580;2023-12-07T18:33:34;253.57;;;82.72;;
50739;SDS011;36704;52.524;17.580;2023-12-07T18:38:55;261.23;;;86.72;;
50739;SDS011;36704;52.524;17.580;2023-12-07T18:44:17;416.80;;;142.53;;
50739;SDS011;36704;52.524;17.580;2023-12-07T18:49:39;297.27;;;92.63;;
50739;SDS011;36704;52.524;17.580;2023-12-07T18:55:00;390.40;;;134.27;;
50739;SDS011;36704;52.524;17.580;2023-12-07T19:00:21;277.60;;;90.63;;
50739;SDS011;36704;52.524;17.580;2023-12-07T19:05:43;218.52;;;79.20;;
50739;SDS011;36704;52.524;17.580;2023-12-07T19:11:05;195.65;;;60.88;;
50739;SDS011;36704;52.524;17.580;2023-12-07T19:16:26;195.43;;;60.13;;
50739;SDS011;36704;52.524;17.580;2023-12-07T19:21:47;171.80;;;47.73;;
50739;SDS011;36704;52.524;17.580;2023-12-07T19:27:10;156.50;;;52.85;;
50739;SDS011;36704;52.524;17.580;2023-12-07T19:32:31;174.93;;;66.13;;
50739;SDS011;36704;52.524;17.580;2023-12-07T19:37:53;190.30;;;61.55;;
50739;SDS011;36704;52.524;17.580;2023-12-07T19:43:14;208.63;;;72.80;;
50739;SDS011;36704;52.524;17.580;2023-12-07T19:48:36;232.70;;;74.95;;
50739;SDS011;36704;52.524;17.580;2023-12-07T19:53:59;212.90;;;64.53;;
50739;SDS011;36704;52.524;17.580;2023-12-07T20:04:43;196.52;;;62.10;;
50739;SDS011;36704;52.524;17.580;2023-12-07T20:10:04;184.77;;;56.65;;
50739;SDS011;36704;52.524;17.580;2023-12-07T20:15:27;216.13;;;68.75;;
50739;SDS011;36704;52.524;17.580;2023-12-07T20:20:48;203.40;;;69.03;;
50739;SDS011;36704;52.524;17.580;2023-12-07T20:26:09;213.15;;;65.78;;
50739;SDS011;36704;52.524;17.580;2023-12-07T20:31:36;311.40;;;90.00;;
50739;SDS011;36704;52.524;17.580;2023-12-07T20:36:58;350.33;;;97.97;;
50739;SDS011;36704;52.524;17.580;2023-12-07T20:42:19;202.60;;;67.82;;
50739;SDS011;36704;52.524;17.580;2023-12-07T20:47:41;196.17;;;59.07;;
50739;SDS011;36704;52.524;17.580;2023-12-07T20:53:02;167.85;;;53.65;;
50739;SDS011;36704;52.524;17.580;2023-12-07T20:58:28;175.07;;;58.28;;
50739;SDS011;36704;52.524;17.580;2023-12-07T21:03:53;180.88;;;56.92;;
50739;SDS011;36704;52.524;17.580;2023-12-07T21:09:15;219.02;;;66.80;;
50739;SDS011;36704;52.524;17.580;2023-12-07T21:14:36;211.85;;;71.50;;
50739;SDS011;36704;52.524;17.580;2023-12-07T21:19:57;259.65;;;91.72;;
50739;SDS011;36704;52.524;17.580;2023-12-07T21:25:18;279.35;;;94.57;;
50739;SDS011;36704;52.524;17.580;2023-12-07T21:30:39;183.60;;;58.22;;
50739;SDS011;36704;52.524;17.580;2023-12-07T21:36:01;185.10;;;57.75;;
50739;SDS011;36704;52.524;17.580;2023-12-07T21:41:23;188.93;;;61.63;;
50739;SDS011;36704;52.524;17.580;2023-12-07T21:46:44;182.13;;;61.97;;
50739;SDS011;36704;52.524;17.580;2023-12-07T21:52:05;248.70;;;72.13;;
50739;SDS011;36704;52.524;17.580;2023-12-07T21:57:27;215.93;;;71.40;;
50739;SDS011;36704;52.524;17.580;2023-12-07T22:02:49;197.77;;;60.58;;
50739;SDS011;36704;52.524;17.580;2023-12-07T22:08:10;279.42;;;86.57;;
50739;SDS011;36704;52.524;17.580;2023-12-07T22:13:31;198.80;;;59.28;;
50739;SDS011;36704;52.524;17.580;2023-12-07T22:18:53;171.35;;;56.28;;
50739;SDS011;36704;52.524;17.580;2023-12-07T22:24:15;178.93;;;55.30;;
50739;SDS011;36704;52.524;17.580;2023-12-07T22:29:36;190.13;;;58.03;;
50739;SDS011;36704;52.524;17.580;2023-12-07T22:34:58;176.45;;;57.70;;
50739;SDS011;36704;52.524;17.580;2023-12-07T22:40:20;173.50;;;56.50;;
50739;SDS011;36704;52.524;17.580;2023-12-07T22:45:41;177.93;;;58.30;;
50739;SDS011;36704;52.524;17.580;2023-12-07T22:51:03;193.30;;;56.17;;
50739;SDS011;36704;52.524;17.580;2023-12-07T22:56:24;187.07;;;55.50;;
50739;SDS011;36704;52.524;17.580;2023-12-07T23:01:45;170.70;;;52.05;;
50739;SDS011;36704;52.524;17.580;2023-12-07T23:07:06;150.38;;;45.78;;
50739;SDS011;36704;52.524;17.580;2023-12-07T23:12:27;148.90;;;47.58;;
50739;SDS011;36704;52.524;17.580;2023-12-07T23:17:49;156.73;;;43.50;;
50739;SDS011;36704;52.524;17.580;2023-12-07T23:23:10;147.80;;;43.10;;
50739;SDS011;36704;52.524;17.580;2023-12-07T23:28:31;138.48;;;42.75;;
50739;SDS011;36704;52.524;17.580;2023-12-07T23:33:52;136.65;;;41.35;;
50739;SDS011;36704;52.524;17.580;2023-12-07T23:39:14;123.22;;;39.92;;
50739;SDS011;36704;52.524;17.580;2023-12-07T23:44:35;133.97;;;40.73;;
50739;SDS011;36704;52.524;17.580;2023-12-07T23:49:56;116.13;;;36.03;;
50739;SDS011;36704;52.524;17.580;2023-12-07T23:55:18;128.75;;;37.92;;
